sensor_id;sensor_type;location;lat;lon;timestamp;P1;durP1;ratioP1;P2;durP2;ratioP2
66800;SDS011;53703;50.326;19.122;2024-01-06T00:02:33;27.00;;;13.80;;
66800;SDS011;53703;50.326;19.122;2024-01-06T00:05:08;27.90;;;14.10;;
66800;SDS011;53703;50.326;19.122;2024-01-06T00:07:42;26.20;;;13.40;;
66800;SDS011;53703;50.326;19.122;2024-01-06T00:10:15;27.60;;;14.50;;
66800;SDS011;53703;50.326;19.122;2024-01-06T00:12:52;26.50;;;13.60;;
66800;SDS011;53703;50.326;19.122;2024-01-06T00:15:26;30.30;;;15.10;;
66800;SDS011;53703;50.326;19.122;2024-01-06T00:17:59;29.60;;;13.90;;
66800;SDS011;53703;50.326;19.122;2024-01-06T00:20:34;27.40;;;13.80;;
66800;SDS011;53703;50.326;19.122;2024-01-06T00:23:08;28.20;;;14.40;;
66800;SDS011;53703;50.326;19.122;2024-01-06T00:25:42;28.40;;;13.30;;
66800;SDS011;53703;50.326;19.122;2024-01-06T00:28:16;27.10;;;13.70;;
66800;SDS011;53703;50.326;19.122;2024-01-06T00:30:50;25.40;;;14.00;;
66800;SDS011;53703;50.326;19.122;2024-01-06T00:33:24;26.90;;;13.80;;
66800;SDS011;53703;50.326;19.122;2024-01-06T00:35:58;27.90;;;13.30;;
66800;SDS011;53703;50.326;19.122;2024-01-06T00:38:35;26.40;;;13.30;;
66800;SDS011;53703;50.326;19.122;2024-01-06T00:41:09;26.80;;;13.30;;
66800;SDS011;53703;50.326;19.122;2024-01-06T00:43:43;25.00;;;14.00;;
66800;SDS011;53703;50.326;19.122;2024-01-06T00:46:17;27.00;;;13.80;;
66800;SDS011;53703;50.326;19.122;2024-01-06T00:48:51;24.50;;;12.90;;
66800;SDS011;53703;50.326;19.122;2024-01-06T00:51:26;25.50;;;13.20;;
66800;SDS011;53703;50.326;19.122;2024-01-06T00:54:00;25.80;;;13.30;;
66800;SDS011;53703;50.326;19.122;2024-01-06T00:56:33;27.60;;;13.80;;
66800;SDS011;53703;50.326;19.122;2024-01-06T00:59:07;24.60;;;13.60;;
66800;SDS011;53703;50.326;19.122;2024-01-06T01:01:40;25.30;;;13.00;;
66800;SDS011;53703;50.326;19.122;2024-01-06T01:04:14;26.50;;;13.90;;
66800;SDS011;53703;50.326;19.122;2024-01-06T01:06:48;27.60;;;13.90;;
66800;SDS011;53703;50.326;19.122;2024-01-06T01:09:22;27.50;;;14.10;;
66800;SDS011;53703;50.326;19.122;2024-01-06T01:11:56;23.20;;;12.90;;
66800;SDS011;53703;50.326;19.122;2024-01-06T01:14:29;26.20;;;13.70;;
66800;SDS011;53703;50.326;19.122;2024-01-06T01:17:03;27.50;;;14.10;;
66800;SDS011;53703;50.326;19.122;2024-01-06T01:19:36;26.10;;;12.90;;
66800;SDS011;53703;50.326;19.122;2024-01-06T01:22:10;23.70;;;13.10;;
66800;SDS011;53703;50.326;19.122;2024-01-06T01:24:44;25.20;;;13.00;;
66800;SDS011;53703;50.326;19.122;2024-01-06T01:27:17;25.60;;;13.50;;
66800;SDS011;53703;50.326;19.122;2024-01-06T01:29:51;24.60;;;13.20;;
66800;SDS011;53703;50.326;19.122;2024-01-06T01:32:25;29.10;;;13.80;;
66800;SDS011;53703;50.326;19.122;2024-01-06T01:34:59;29.80;;;13.70;;
66800;SDS011;53703;50.326;19.122;2024-01-06T01:37:32;28.00;;;13.80;;
66800;SDS011;53703;50.326;19.122;2024-01-06T01:40:08;23.60;;;12.30;;
66800;SDS011;53703;50.326;19.122;2024-01-06T01:42:44;26.60;;;13.70;;
66800;SDS011;53703;50.326;19.122;2024-01-06T01:45:17;26.60;;;13.70;;
66800;SDS011;53703;50.326;19.122;2024-01-06T01:47:50;23.80;;;12.70;;
66800;SDS011;53703;50.326;19.122;2024-01-06T01:50:25;27.00;;;13.60;;
66800;SDS011;53703;50.326;19.122;2024-01-06T01:53:01;25.50;;;12.20;;
66800;SDS011;53703;50.326;19.122;2024-01-06T01:55:34;27.60;;;13.30;;
66800;SDS011;53703;50.326;19.122;2024-01-06T01:58:08;25.80;;;12.90;;
66800;SDS011;53703;50.326;19.122;2024-01-06T02:00:43;25.70;;;13.30;;
66800;SDS011;53703;50.326;19.122;2024-01-06T02:03:17;26.10;;;12.60;;
66800;SDS011;53703;50.326;19.122;2024-01-06T02:05:51;26.40;;;13.10;;
66800;SDS011;53703;50.326;19.122;2024-01-06T02:08:25;26.40;;;13.80;;
66800;SDS011;53703;50.326;19.122;2024-01-06T02:10:58;25.00;;;13.00;;
66800;SDS011;53703;50.326;19.122;2024-01-06T02:13:35;28.70;;;13.40;;
66800;SDS011;53703;50.326;19.122;2024-01-06T02:16:09;22.90;;;12.50;;
66800;SDS011;53703;50.326;19.122;2024-01-06T02:18:43;24.10;;;13.00;;
66800;SDS011;53703;50.326;19.122;2024-01-06T02:21:17;27.40;;;13.10;;
66800;SDS011;53703;50.326;19.122;2024-01-06T02:23:51;29.30;;;13.50;;
66800;SDS011;53703;50.326;19.122;2024-01-06T02:26:25;24.20;;;12.80;;
66800;SDS011;53703;50.326;19.122;2024-01-06T02:28:58;26.50;;;13.20;;
66800;SDS011;53703;50.326;19.122;2024-01-06T02:31:32;24.90;;;13.30;;
66800;SDS011;53703;50.326;19.122;2024-01-06T02:34:05;26.30;;;13.60;;
66800;SDS011;53703;50.326;19.122;2024-01-06T02:36:39;26.90;;;13.20;;
66800;SDS011;53703;50.326;19.122;2024-01-06T02:39:13;28.40;;;13.90;;
66800;SDS011;53703;50.326;19.122;2024-01-06T02:41:46;26.70;;;13.30;;
66800;SDS011;53703;50.326;19.122;2024-01-06T02:44:20;27.40;;;14.30;;
66800;SDS011;53703;50.326;19.122;2024-01-06T02:46:53;26.00;;;13.20;;
66800;SDS011;53703;50.326;19.122;2024-01-06T02:49:26;26.70;;;12.90;;
66800;SDS011;53703;50.326;19.122;2024-01-06T02:52:00;27.00;;;13.50;;
66800;SDS011;53703;50.326;19.122;2024-01-06T02:54:33;26.50;;;13.40;;
66800;SDS011;53703;50.326;19.122;2024-01-06T02:57:07;23.90;;;12.60;;
66800;SDS011;53703;50.326;19.122;2024-01-06T02:59:44;25.50;;;13.50;;
66800;SDS011;53703;50.326;19.122;2024-01-06T03:02:17;28.00;;;13.10;;
66800;SDS011;53703;50.326;19.122;2024-01-06T03:04:51;24.70;;;13.30;;
66800;SDS011;53703;50.326;19.122;2024-01-06T03:07:25;27.00;;;13.30;;
66800;SDS011;53703;50.326;19.122;2024-01-06T03:09:59;27.20;;;13.50;;
66800;SDS011;53703;50.326;19.122;2024-01-06T03:12:33;28.00;;;13.80;;
66800;SDS011;53703;50.326;19.122;2024-01-06T03:15:07;27.60;;;13.30;;
66800;SDS011;53703;50.326;19.122;2024-01-06T03:17:42;23.60;;;12.90;;
66800;SDS011;53703;50.326;19.122;2024-01-06T03:20:15;24.40;;;12.70;;
66800;SDS011;53703;50.326;19.122;2024-01-06T03:22:49;27.00;;;13.60;;
66800;SDS011;53703;50.326;19.122;2024-01-06T03:25:22;26.20;;;13.80;;
66800;SDS011;53703;50.326;19.122;2024-01-06T03:27:56;26.50;;;13.20;;
66800;SDS011;53703;50.326;19.122;2024-01-06T03:30:29;27.20;;;13.10;;
66800;SDS011;53703;50.326;19.122;2024-01-06T03:33:03;26.20;;;13.20;;
66800;SDS011;53703;50.326;19.122;2024-01-06T03:35:37;26.40;;;13.60;;
66800;SDS011;53703;50.326;19.122;2024-01-06T03:38:10;23.50;;;12.50;;
66800;SDS011;53703;50.326;19.122;2024-01-06T03:40:44;26.20;;;13.00;;
66800;SDS011;53703;50.326;19.122;2024-01-06T03:43:18;24.30;;;12.80;;
66800;SDS011;53703;50.326;19.122;2024-01-06T03:45:51;25.70;;;13.10;;
66800;SDS011;53703;50.326;19.122;2024-01-06T03:48:26;27.70;;;13.50;;
66800;SDS011;53703;50.326;19.122;2024-01-06T03:51:00;25.40;;;13.70;;
66800;SDS011;53703;50.326;19.122;2024-01-06T03:53:34;25.90;;;13.30;;
66800;SDS011;53703;50.326;19.122;2024-01-06T03:56:08;25.80;;;13.30;;
66800;SDS011;53703;50.326;19.122;2024-01-06T03:58:41;28.30;;;13.70;;
66800;SDS011;53703;50.326;19.122;2024-01-06T04:01:15;25.90;;;13.10;;
66800;SDS011;53703;50.326;19.122;2024-01-06T04:03:48;25.10;;;13.00;;
66800;SDS011;53703;50.326;19.122;2024-01-06T04:06:22;29.40;;;13.70;;
66800;SDS011;53703;50.326;19.122;2024-01-06T04:08:55;28.30;;;13.30;;
66800;SDS011;53703;50.326;19.122;2024-01-06T04:11:29;25.20;;;13.60;;
66800;SDS011;53703;50.326;19.122;2024-01-06T04:14:03;27.30;;;13.40;;
66800;SDS011;53703;50.326;19.122;2024-01-06T04:16:36;24.90;;;13.50;;
66800;SDS011;53703;50.326;19.122;2024-01-06T04:19:10;25.80;;;13.90;;
66800;SDS011;53703;50.326;19.122;2024-01-06T04:21:44;26.30;;;13.40;;
66800;SDS011;53703;50.326;19.122;2024-01-06T04:24:18;25.50;;;13.20;;
66800;SDS011;53703;50.326;19.122;2024-01-06T04:26:52;27.80;;;13.20;;
66800;SDS011;53703;50.326;19.122;2024-01-06T04:29:25;26.80;;;13.60;;
66800;SDS011;53703;50.326;19.122;2024-01-06T04:31:59;26.70;;;13.60;;
66800;SDS011;53703;50.326;19.122;2024-01-06T04:34:32;28.70;;;14.10;;
66800;SDS011;53703;50.326;19.122;2024-01-06T04:37:06;28.70;;;13.20;;
66800;SDS011;53703;50.326;19.122;2024-01-06T04:39:39;25.50;;;13.60;;
66800;SDS011;53703;50.326;19.122;2024-01-06T04:42:13;25.60;;;13.10;;
66800;SDS011;53703;50.326;19.122;2024-01-06T04:44:46;27.70;;;13.70;;
66800;SDS011;53703;50.326;19.122;2024-01-06T04:47:20;25.20;;;13.40;;
66800;SDS011;53703;50.326;19.122;2024-01-06T04:49:53;24.70;;;13.20;;
66800;SDS011;53703;50.326;19.122;2024-01-06T04:52:27;29.70;;;14.00;;
66800;SDS011;53703;50.326;19.122;2024-01-06T04:55:00;25.80;;;13.90;;
66800;SDS011;53703;50.326;19.122;2024-01-06T04:57:34;26.60;;;14.00;;
66800;SDS011;53703;50.326;19.122;2024-01-06T05:00:09;27.20;;;13.30;;
66800;SDS011;53703;50.326;19.122;2024-01-06T05:02:44;25.40;;;12.70;;
66800;SDS011;53703;50.326;19.122;2024-01-06T05:05:18;28.00;;;12.70;;
66800;SDS011;53703;50.326;19.122;2024-01-06T05:07:52;26.70;;;13.40;;
66800;SDS011;53703;50.326;19.122;2024-01-06T05:10:25;27.60;;;13.60;;
66800;SDS011;53703;50.326;19.122;2024-01-06T05:12:59;26.20;;;13.30;;
66800;SDS011;53703;50.326;19.122;2024-01-06T05:15:32;27.80;;;13.70;;
66800;SDS011;53703;50.326;19.122;2024-01-06T05:18:06;28.00;;;13.40;;
66800;SDS011;53703;50.326;19.122;2024-01-06T05:20:40;27.40;;;13.20;;
66800;SDS011;53703;50.326;19.122;2024-01-06T05:23:14;29.00;;;13.60;;
66800;SDS011;53703;50.326;19.122;2024-01-06T05:25:47;28.20;;;14.10;;
66800;SDS011;53703;50.326;19.122;2024-01-06T05:28:21;26.70;;;13.60;;
66800;SDS011;53703;50.326;19.122;2024-01-06T05:30:54;26.40;;;13.90;;
66800;SDS011;53703;50.326;19.122;2024-01-06T05:33:28;28.50;;;13.70;;
66800;SDS011;53703;50.326;19.122;2024-01-06T05:36:02;26.20;;;13.60;;
66800;SDS011;53703;50.326;19.122;2024-01-06T05:38:37;26.50;;;13.20;;
66800;SDS011;53703;50.326;19.122;2024-01-06T05:41:10;26.40;;;13.40;;
66800;SDS011;53703;50.326;19.122;2024-01-06T05:43:44;26.80;;;13.10;;
66800;SDS011;53703;50.326;19.122;2024-01-06T05:46:23;26.00;;;13.70;;
66800;SDS011;53703;50.326;19.122;2024-01-06T05:48:56;29.10;;;13.80;;
66800;SDS011;53703;50.326;19.122;2024-01-06T05:51:30;29.90;;;14.40;;
66800;SDS011;53703;50.326;19.122;2024-01-06T05:54:04;24.10;;;13.30;;
66800;SDS011;53703;50.326;19.122;2024-01-06T05:56:37;26.00;;;13.60;;
66800;SDS011;53703;50.326;19.122;2024-01-06T05:59:11;25.50;;;13.60;;
66800;SDS011;53703;50.326;19.122;2024-01-06T06:01:44;27.00;;;13.70;;
66800;SDS011;53703;50.326;19.122;2024-01-06T06:04:18;28.10;;;14.40;;
66800;SDS011;53703;50.326;19.122;2024-01-06T06:06:52;30.90;;;14.40;;
66800;SDS011;53703;50.326;19.122;2024-01-06T06:09:28;27.60;;;13.60;;
66800;SDS011;53703;50.326;19.122;2024-01-06T06:12:06;28.90;;;14.10;;
66800;SDS011;53703;50.326;19.122;2024-01-06T06:14:39;27.40;;;13.80;;
66800;SDS011;53703;50.326;19.122;2024-01-06T06:17:13;29.80;;;15.10;;
66800;SDS011;53703;50.326;19.122;2024-01-06T06:19:46;28.10;;;14.10;;
66800;SDS011;53703;50.326;19.122;2024-01-06T06:22:20;26.10;;;14.00;;
66800;SDS011;53703;50.326;19.122;2024-01-06T06:24:54;28.90;;;14.60;;
66800;SDS011;53703;50.326;19.122;2024-01-06T06:27:27;29.40;;;13.80;;
66800;SDS011;53703;50.326;19.122;2024-01-06T06:30:01;30.80;;;16.60;;
66800;SDS011;53703;50.326;19.122;2024-01-06T06:32:35;29.10;;;14.60;;
66800;SDS011;53703;50.326;19.122;2024-01-06T06:35:09;26.80;;;14.10;;
66800;SDS011;53703;50.326;19.122;2024-01-06T06:37:43;28.50;;;14.40;;
66800;SDS011;53703;50.326;19.122;2024-01-06T06:40:17;31.80;;;14.70;;
66800;SDS011;53703;50.326;19.122;2024-01-06T06:42:51;27.50;;;14.50;;
66800;SDS011;53703;50.326;19.122;2024-01-06T06:45:24;29.50;;;14.50;;
66800;SDS011;53703;50.326;19.122;2024-01-06T06:47:58;30.40;;;15.10;;
66800;SDS011;53703;50.326;19.122;2024-01-06T06:50:31;28.30;;;14.80;;
66800;SDS011;53703;50.326;19.122;2024-01-06T06:53:05;30.00;;;14.50;;
66800;SDS011;53703;50.326;19.122;2024-01-06T06:55:39;29.60;;;14.00;;
66800;SDS011;53703;50.326;19.122;2024-01-06T06:58:12;29.90;;;14.30;;
66800;SDS011;53703;50.326;19.122;2024-01-06T07:00:46;29.80;;;14.30;;
66800;SDS011;53703;50.326;19.122;2024-01-06T07:03:19;28.00;;;14.10;;
66800;SDS011;53703;50.326;19.122;2024-01-06T07:05:53;27.60;;;14.90;;
66800;SDS011;53703;50.326;19.122;2024-01-06T07:08:27;30.10;;;14.40;;
66800;SDS011;53703;50.326;19.122;2024-01-06T07:11:01;30.60;;;15.60;;
66800;SDS011;53703;50.326;19.122;2024-01-06T07:13:35;27.60;;;14.30;;
66800;SDS011;53703;50.326;19.122;2024-01-06T07:16:08;29.60;;;14.50;;
66800;SDS011;53703;50.326;19.122;2024-01-06T07:18:49;28.80;;;14.40;;
66800;SDS011;53703;50.326;19.122;2024-01-06T07:21:23;27.40;;;13.90;;
66800;SDS011;53703;50.326;19.122;2024-01-06T07:23:56;28.40;;;14.80;;
66800;SDS011;53703;50.326;19.122;2024-01-06T07:26:29;25.80;;;14.10;;
66800;SDS011;53703;50.326;19.122;2024-01-06T07:29:03;26.20;;;14.20;;
66800;SDS011;53703;50.326;19.122;2024-01-06T07:31:37;24.60;;;13.60;;
66800;SDS011;53703;50.326;19.122;2024-01-06T07:34:11;30.00;;;14.50;;
66800;SDS011;53703;50.326;19.122;2024-01-06T07:36:44;34.50;;;15.90;;
66800;SDS011;53703;50.326;19.122;2024-01-06T07:39:18;28.90;;;15.50;;
66800;SDS011;53703;50.326;19.122;2024-01-06T07:41:51;29.10;;;14.90;;
66800;SDS011;53703;50.326;19.122;2024-01-06T07:44:25;34.00;;;16.10;;
66800;SDS011;53703;50.326;19.122;2024-01-06T07:46:58;28.90;;;16.30;;
66800;SDS011;53703;50.326;19.122;2024-01-06T07:49:36;29.10;;;14.70;;
66800;SDS011;53703;50.326;19.122;2024-01-06T07:52:09;30.90;;;15.70;;
66800;SDS011;53703;50.326;19.122;2024-01-06T07:54:44;29.60;;;15.50;;
66800;SDS011;53703;50.326;19.122;2024-01-06T07:57:19;32.80;;;16.10;;
66800;SDS011;53703;50.326;19.122;2024-01-06T07:59:52;28.80;;;15.10;;
66800;SDS011;53703;50.326;19.122;2024-01-06T08:02:26;28.80;;;15.10;;
66800;SDS011;53703;50.326;19.122;2024-01-06T08:04:59;33.00;;;16.10;;
66800;SDS011;53703;50.326;19.122;2024-01-06T08:07:33;32.50;;;16.30;;
66800;SDS011;53703;50.326;19.122;2024-01-06T08:10:08;29.80;;;15.00;;
66800;SDS011;53703;50.326;19.122;2024-01-06T08:12:42;32.50;;;16.00;;
66800;SDS011;53703;50.326;19.122;2024-01-06T08:15:16;28.60;;;15.40;;
66800;SDS011;53703;50.326;19.122;2024-01-06T08:17:50;30.50;;;16.10;;
66800;SDS011;53703;50.326;19.122;2024-01-06T08:20:23;29.10;;;14.90;;
66800;SDS011;53703;50.326;19.122;2024-01-06T08:22:57;31.40;;;15.70;;
66800;SDS011;53703;50.326;19.122;2024-01-06T08:25:30;27.80;;;14.60;;
66800;SDS011;53703;50.326;19.122;2024-01-06T08:28:04;31.30;;;16.10;;
66800;SDS011;53703;50.326;19.122;2024-01-06T08:30:38;30.50;;;14.40;;
66800;SDS011;53703;50.326;19.122;2024-01-06T08:33:11;29.50;;;15.00;;
66800;SDS011;53703;50.326;19.122;2024-01-06T08:35:45;27.30;;;15.00;;
66800;SDS011;53703;50.326;19.122;2024-01-06T08:38:19;28.60;;;14.40;;
66800;SDS011;53703;50.326;19.122;2024-01-06T08:40:53;30.10;;;15.00;;
66800;SDS011;53703;50.326;19.122;2024-01-06T08:43:27;34.10;;;16.10;;
66800;SDS011;53703;50.326;19.122;2024-01-06T08:46:00;27.60;;;15.20;;
66800;SDS011;53703;50.326;19.122;2024-01-06T08:48:34;30.20;;;15.20;;
66800;SDS011;53703;50.326;19.122;2024-01-06T08:51:08;29.00;;;16.10;;
66800;SDS011;53703;50.326;19.122;2024-01-06T08:53:42;29.00;;;14.90;;
66800;SDS011;53703;50.326;19.122;2024-01-06T08:56:15;34.10;;;15.50;;
66800;SDS011;53703;50.326;19.122;2024-01-06T08:58:48;30.50;;;15.70;;
66800;SDS011;53703;50.326;19.122;2024-01-06T09:01:22;30.10;;;16.30;;
66800;SDS011;53703;50.326;19.122;2024-01-06T09:03:55;31.20;;;15.90;;
66800;SDS011;53703;50.326;19.122;2024-01-06T09:06:29;30.20;;;16.20;;
66800;SDS011;53703;50.326;19.122;2024-01-06T09:09:03;30.70;;;15.50;;
66800;SDS011;53703;50.326;19.122;2024-01-06T09:11:36;30.10;;;16.50;;
66800;SDS011;53703;50.326;19.122;2024-01-06T09:14:10;31.80;;;16.40;;
66800;SDS011;53703;50.326;19.122;2024-01-06T09:16:43;29.90;;;15.70;;
66800;SDS011;53703;50.326;19.122;2024-01-06T09:19:17;31.90;;;16.70;;
66800;SDS011;53703;50.326;19.122;2024-01-06T09:21:51;32.60;;;16.30;;
66800;SDS011;53703;50.326;19.122;2024-01-06T09:24:25;31.20;;;16.70;;
66800;SDS011;53703;50.326;19.122;2024-01-06T09:26:58;33.20;;;16.60;;
66800;SDS011;53703;50.326;19.122;2024-01-06T09:29:31;30.90;;;15.60;;
66800;SDS011;53703;50.326;19.122;2024-01-06T09:32:06;28.80;;;16.60;;
66800;SDS011;53703;50.326;19.122;2024-01-06T09:34:39;36.90;;;16.90;;
66800;SDS011;53703;50.326;19.122;2024-01-06T09:37:13;31.10;;;16.20;;
66800;SDS011;53703;50.326;19.122;2024-01-06T09:39:46;30.50;;;15.90;;
66800;SDS011;53703;50.326;19.122;2024-01-06T09:42:20;33.80;;;17.00;;
66800;SDS011;53703;50.326;19.122;2024-01-06T09:44:54;33.10;;;16.50;;
66800;SDS011;53703;50.326;19.122;2024-01-06T09:47:27;32.20;;;17.10;;
66800;SDS011;53703;50.326;19.122;2024-01-06T09:50:04;30.10;;;16.10;;
66800;SDS011;53703;50.326;19.122;2024-01-06T09:52:41;33.00;;;16.70;;
66800;SDS011;53703;50.326;19.122;2024-01-06T09:55:14;32.90;;;16.70;;
66800;SDS011;53703;50.326;19.122;2024-01-06T09:57:49;29.80;;;15.60;;
66800;SDS011;53703;50.326;19.122;2024-01-06T10:00:22;31.60;;;16.80;;
66800;SDS011;53703;50.326;19.122;2024-01-06T10:02:56;36.20;;;17.20;;
66800;SDS011;53703;50.326;19.122;2024-01-06T10:05:30;33.30;;;17.20;;
66800;SDS011;53703;50.326;19.122;2024-01-06T10:08:04;34.40;;;17.70;;
66800;SDS011;53703;50.326;19.122;2024-01-06T10:10:37;36.00;;;17.60;;
66800;SDS011;53703;50.326;19.122;2024-01-06T10:13:11;34.10;;;16.30;;
66800;SDS011;53703;50.326;19.122;2024-01-06T10:15:48;35.00;;;17.30;;
66800;SDS011;53703;50.326;19.122;2024-01-06T10:18:23;33.60;;;16.70;;
66800;SDS011;53703;50.326;19.122;2024-01-06T10:21:00;37.00;;;19.20;;
66800;SDS011;53703;50.326;19.122;2024-01-06T10:23:37;33.20;;;17.40;;
66800;SDS011;53703;50.326;19.122;2024-01-06T10:26:14;34.50;;;17.30;;
66800;SDS011;53703;50.326;19.122;2024-01-06T10:28:49;38.10;;;19.70;;
66800;SDS011;53703;50.326;19.122;2024-01-06T10:31:22;34.50;;;17.80;;
66800;SDS011;53703;50.326;19.122;2024-01-06T10:33:59;39.10;;;20.80;;
66800;SDS011;53703;50.326;19.122;2024-01-06T10:36:34;37.30;;;19.60;;
66800;SDS011;53703;50.326;19.122;2024-01-06T10:39:09;35.20;;;18.40;;
66800;SDS011;53703;50.326;19.122;2024-01-06T10:41:50;40.10;;;20.30;;
66800;SDS011;53703;50.326;19.122;2024-01-06T10:44:27;40.50;;;19.40;;
66800;SDS011;53703;50.326;19.122;2024-01-06T10:47:04;40.80;;;19.20;;
66800;SDS011;53703;50.326;19.122;2024-01-06T10:49:38;35.20;;;18.70;;
66800;SDS011;53703;50.326;19.122;2024-01-06T10:52:13;39.50;;;19.30;;
66800;SDS011;53703;50.326;19.122;2024-01-06T10:54:49;39.80;;;18.60;;
66800;SDS011;53703;50.326;19.122;2024-01-06T10:57:28;39.00;;;19.60;;
66800;SDS011;53703;50.326;19.122;2024-01-06T11:00:04;36.40;;;18.80;;
66800;SDS011;53703;50.326;19.122;2024-01-06T11:02:40;37.30;;;19.20;;
66800;SDS011;53703;50.326;19.122;2024-01-06T11:05:15;39.20;;;18.50;;
66800;SDS011;53703;50.326;19.122;2024-01-06T11:07:49;31.80;;;17.20;;
66800;SDS011;53703;50.326;19.122;2024-01-06T11:10:31;39.20;;;18.30;;
66800;SDS011;53703;50.326;19.122;2024-01-06T11:13:14;33.90;;;17.40;;
66800;SDS011;53703;50.326;19.122;2024-01-06T11:15:54;45.00;;;22.60;;
66800;SDS011;53703;50.326;19.122;2024-01-06T11:18:35;33.70;;;19.10;;
66800;SDS011;53703;50.326;19.122;2024-01-06T11:21:21;37.00;;;19.50;;
66800;SDS011;53703;50.326;19.122;2024-01-06T11:24:18;40.30;;;18.80;;
66800;SDS011;53703;50.326;19.122;2024-01-06T11:27:06;37.00;;;18.90;;
66800;SDS011;53703;50.326;19.122;2024-01-06T11:29:39;37.50;;;20.00;;
66800;SDS011;53703;50.326;19.122;2024-01-06T11:32:20;38.00;;;19.00;;
66800;SDS011;53703;50.326;19.122;2024-01-06T11:35:07;40.00;;;20.00;;
66800;SDS011;53703;50.326;19.122;2024-01-06T11:37:55;38.60;;;18.80;;
66800;SDS011;53703;50.326;19.122;2024-01-06T11:40:35;40.20;;;19.40;;
66800;SDS011;53703;50.326;19.122;2024-01-06T11:43:10;43.50;;;21.40;;
66800;SDS011;53703;50.326;19.122;2024-01-06T11:45:46;40.80;;;19.80;;
66800;SDS011;53703;50.326;19.122;2024-01-06T11:48:21;41.00;;;19.70;;
66800;SDS011;53703;50.326;19.122;2024-01-06T11:51:00;52.80;;;27.40;;
66800;SDS011;53703;50.326;19.122;2024-01-06T11:53:35;36.70;;;19.40;;
66800;SDS011;53703;50.326;19.122;2024-01-06T11:56:12;40.40;;;20.00;;
66800;SDS011;53703;50.326;19.122;2024-01-06T11:58:48;44.50;;;21.80;;
66800;SDS011;53703;50.326;19.122;2024-01-06T12:01:21;44.30;;;22.80;;
66800;SDS011;53703;50.326;19.122;2024-01-06T12:03:56;45.10;;;22.40;;
66800;SDS011;53703;50.326;19.122;2024-01-06T12:06:30;43.10;;;22.40;;
66800;SDS011;53703;50.326;19.122;2024-01-06T12:09:08;45.70;;;21.70;;
66800;SDS011;53703;50.326;19.122;2024-01-06T12:11:46;37.40;;;19.90;;
66800;SDS011;53703;50.326;19.122;2024-01-06T12:14:20;40.30;;;20.60;;
66800;SDS011;53703;50.326;19.122;2024-01-06T12:16:53;35.80;;;19.80;;
66800;SDS011;53703;50.326;19.122;2024-01-06T12:19:32;41.10;;;19.90;;
66800;SDS011;53703;50.326;19.122;2024-01-06T12:22:11;41.80;;;21.20;;
66800;SDS011;53703;50.326;19.122;2024-01-06T12:24:48;39.10;;;20.20;;
66800;SDS011;53703;50.326;19.122;2024-01-06T12:27:24;39.60;;;20.60;;
66800;SDS011;53703;50.326;19.122;2024-01-06T12:29:57;40.80;;;21.10;;
66800;SDS011;53703;50.326;19.122;2024-01-06T12:32:31;39.40;;;20.60;;
66800;SDS011;53703;50.326;19.122;2024-01-06T12:35:05;41.60;;;21.30;;
66800;SDS011;53703;50.326;19.122;2024-01-06T12:37:41;46.10;;;21.50;;
66800;SDS011;53703;50.326;19.122;2024-01-06T12:40:16;35.40;;;18.90;;
66800;SDS011;53703;50.326;19.122;2024-01-06T12:42:52;38.30;;;19.00;;
66800;SDS011;53703;50.326;19.122;2024-01-06T12:45:26;38.90;;;19.60;;
66800;SDS011;53703;50.326;19.122;2024-01-06T12:47:59;36.40;;;19.20;;
66800;SDS011;53703;50.326;19.122;2024-01-06T12:50:34;36.00;;;18.30;;
66800;SDS011;53703;50.326;19.122;2024-01-06T12:53:07;40.20;;;21.80;;
66800;SDS011;53703;50.326;19.122;2024-01-06T12:55:42;39.00;;;20.10;;
66800;SDS011;53703;50.326;19.122;2024-01-06T12:58:16;36.00;;;19.10;;
66800;SDS011;53703;50.326;19.122;2024-01-06T13:00:50;62.10;;;20.50;;
66800;SDS011;53703;50.326;19.122;2024-01-06T13:03:24;37.40;;;18.10;;
66800;SDS011;53703;50.326;19.122;2024-01-06T13:05:57;44.90;;;19.60;;
66800;SDS011;53703;50.326;19.122;2024-01-06T13:08:31;38.90;;;19.00;;
66800;SDS011;53703;50.326;19.122;2024-01-06T13:11:05;38.20;;;18.60;;
66800;SDS011;53703;50.326;19.122;2024-01-06T13:13:38;35.60;;;18.20;;
66800;SDS011;53703;50.326;19.122;2024-01-06T13:16:12;38.60;;;19.20;;
66800;SDS011;53703;50.326;19.122;2024-01-06T13:18:46;39.60;;;19.60;;
66800;SDS011;53703;50.326;19.122;2024-01-06T13:23:59;38.90;;;18.80;;
66800;SDS011;53703;50.326;19.122;2024-01-06T13:26:35;41.20;;;20.70;;
66800;SDS011;53703;50.326;19.122;2024-01-06T13:29:09;37.90;;;19.60;;
66800;SDS011;53703;50.326;19.122;2024-01-06T13:31:45;40.40;;;20.50;;
66800;SDS011;53703;50.326;19.122;2024-01-06T13:34:20;38.00;;;19.10;;
66800;SDS011;53703;50.326;19.122;2024-01-06T13:36:54;38.30;;;19.90;;
66800;SDS011;53703;50.326;19.122;2024-01-06T13:39:28;37.70;;;19.60;;
66800;SDS011;53703;50.326;19.122;2024-01-06T13:42:01;37.30;;;18.90;;
66800;SDS011;53703;50.326;19.122;2024-01-06T13:44:35;41.00;;;19.60;;
66800;SDS011;53703;50.326;19.122;2024-01-06T13:47:09;36.70;;;18.60;;
66800;SDS011;53703;50.326;19.122;2024-01-06T13:49:42;36.90;;;18.70;;
66800;SDS011;53703;50.326;19.122;2024-01-06T13:52:16;36.60;;;18.30;;
66800;SDS011;53703;50.326;19.122;2024-01-06T13:54:50;34.40;;;17.30;;
66800;SDS011;53703;50.326;19.122;2024-01-06T13:57:23;34.30;;;17.50;;
66800;SDS011;53703;50.326;19.122;2024-01-06T13:59:57;34.70;;;17.90;;
66800;SDS011;53703;50.326;19.122;2024-01-06T14:02:30;30.40;;;16.60;;
66800;SDS011;53703;50.326;19.122;2024-01-06T14:05:04;32.20;;;16.40;;
66800;SDS011;53703;50.326;19.122;2024-01-06T14:07:40;31.80;;;16.60;;
66800;SDS011;53703;50.326;19.122;2024-01-06T14:10:16;33.60;;;17.70;;
66800;SDS011;53703;50.326;19.122;2024-01-06T14:12:50;29.00;;;15.40;;
66800;SDS011;53703;50.326;19.122;2024-01-06T14:15:24;31.00;;;16.10;;
66800;SDS011;53703;50.326;19.122;2024-01-06T14:17:58;34.30;;;17.00;;
66800;SDS011;53703;50.326;19.122;2024-01-06T14:20:32;32.60;;;16.30;;
66800;SDS011;53703;50.326;19.122;2024-01-06T14:23:08;32.40;;;16.90;;
66800;SDS011;53703;50.326;19.122;2024-01-06T14:25:42;30.60;;;16.90;;
66800;SDS011;53703;50.326;19.122;2024-01-06T14:28:16;28.10;;;15.20;;
66800;SDS011;53703;50.326;19.122;2024-01-06T14:30:49;32.80;;;16.20;;
66800;SDS011;53703;50.326;19.122;2024-01-06T14:33:23;28.60;;;15.80;;
66800;SDS011;53703;50.326;19.122;2024-01-06T14:35:58;29.60;;;15.40;;
66800;SDS011;53703;50.326;19.122;2024-01-06T14:38:32;28.50;;;14.80;;
66800;SDS011;53703;50.326;19.122;2024-01-06T14:41:05;28.90;;;15.10;;
66800;SDS011;53703;50.326;19.122;2024-01-06T14:43:39;29.90;;;16.00;;
66800;SDS011;53703;50.326;19.122;2024-01-06T14:46:12;28.90;;;15.40;;
66800;SDS011;53703;50.326;19.122;2024-01-06T14:48:46;28.50;;;15.40;;
66800;SDS011;53703;50.326;19.122;2024-01-06T14:51:20;28.50;;;15.10;;
66800;SDS011;53703;50.326;19.122;2024-01-06T14:53:53;29.00;;;14.80;;